createdAt,value
2023-06-11T00:00:17.803Z,41.20
2023-06-11T00:03:08.104Z,41.30
2023-06-11T00:05:37.360Z,41.60
2023-06-11T00:08:07.029Z,41.40
2023-06-11T00:10:36.452Z,41.60
2023-06-11T00:13:05.457Z,41.50
2023-06-11T00:15:34.783Z,41.00
2023-06-11T00:18:03.617Z,41.10
2023-06-11T00:20:34.291Z,40.70
2023-06-11T00:23:03.232Z,40.50
2023-06-11T00:25:33.604Z,39.70
2023-06-11T00:28:02.566Z,39.90
2023-06-11T00:30:32.317Z,39.70
2023-06-11T00:33:01.526Z,40.00
2023-06-11T00:35:31.290Z,38.80
2023-06-11T00:38:01.746Z,39.30
2023-06-11T00:40:30.997Z,39.10
2023-06-11T00:42:59.958Z,39.10
2023-06-11T00:45:29.619Z,39.20
2023-06-11T00:47:58.751Z,38.80
2023-06-11T00:50:29.910Z,38.40
2023-06-11T00:53:00.380Z,38.50
2023-06-11T00:55:29.706Z,38.30
2023-06-11T00:57:58.620Z,38.40
2023-06-11T01:00:29.096Z,38.60
2023-06-11T01:03:09.039Z,38.50
2023-06-11T01:05:44.584Z,38.30
2023-06-11T01:08:18.154Z,38.20
2023-06-11T01:10:50.662Z,38.70
2023-06-11T01:13:20.403Z,38.70
2023-06-11T01:15:50.957Z,38.70
2023-06-11T01:18:25.111Z,38.20
2023-06-11T01:21:04.540Z,38.40
2023-06-11T01:23:44.906Z,38.10
2023-06-11T01:26:31.006Z,37.70
2023-06-11T01:29:05.377Z,38.30
2023-06-11T01:31:39.750Z,38.10
2023-06-11T01:34:10.053Z,38.30
2023-06-11T01:36:40.716Z,38.50
2023-06-11T01:39:10.549Z,37.80
2023-06-11T01:42:02.808Z,37.50
2023-06-11T01:44:34.376Z,37.50
2023-06-11T01:47:03.516Z,37.00
2023-06-11T01:49:32.805Z,37.20
2023-06-11T01:52:01.984Z,36.90
2023-06-11T01:54:31.091Z,37.40
2023-06-11T01:57:00.278Z,36.80
2023-06-11T01:59:29.237Z,36.90
2023-06-11T02:02:00.345Z,36.50
2023-06-11T02:04:29.547Z,36.40
2023-06-11T02:06:59.211Z,36.70
2023-06-11T02:09:28.132Z,37.00
2023-06-11T02:11:57.365Z,36.60
2023-06-11T02:14:26.568Z,36.20
2023-06-11T02:16:55.990Z,36.60
2023-06-11T02:19:26.346Z,36.70
2023-06-11T02:21:55.623Z,36.30
2023-06-11T02:24:24.758Z,36.70
2023-06-11T02:26:53.957Z,37.10
2023-06-11T02:29:23.066Z,36.20
2023-06-11T02:31:52.132Z,37.70
2023-06-11T02:34:20.962Z,37.00
2023-06-11T02:36:51.943Z,37.60
2023-06-11T02:39:21.008Z,37.40
2023-06-11T02:41:50.174Z,37.10
2023-06-11T02:44:19.063Z,37.00
2023-06-11T02:46:48.320Z,37.00
2023-06-11T02:49:17.305Z,37.60
2023-06-11T02:51:46.417Z,36.50
2023-06-11T02:54:16.649Z,37.20
2023-06-11T02:56:45.951Z,37.00
2023-06-11T02:59:15.168Z,37.00
2023-06-11T03:01:44.468Z,37.30
2023-06-11T03:04:13.709Z,37.20
2023-06-11T03:06:42.981Z,37.50
2023-06-11T03:09:11.930Z,36.70
2023-06-11T03:11:42.573Z,36.60
2023-06-11T03:14:11.363Z,37.10
2023-06-11T03:16:40.555Z,37.10
2023-06-11T03:19:09.756Z,37.50
2023-06-11T03:21:39.182Z,37.30
2023-06-11T03:24:09.334Z,37.80
2023-06-11T03:26:38.634Z,37.80
2023-06-11T03:29:09.143Z,37.70
2023-06-11T03:31:47.149Z,37.10
2023-06-11T03:34:16.538Z,37.30
2023-06-11T03:36:46.408Z,36.80
2023-06-11T03:39:18.980Z,36.60
2023-06-11T03:41:51.545Z,36.80
2023-06-11T03:44:23.788Z,37.00
2023-06-11T03:46:53.574Z,36.80
2023-06-11T03:49:22.563Z,37.10
2023-06-11T03:51:51.830Z,36.80
2023-06-11T03:54:20.875Z,37.50
2023-06-11T03:56:51.561Z,36.70
2023-06-11T03:59:20.718Z,36.60
2023-06-11T04:01:51.435Z,36.70
2023-06-11T04:04:20.462Z,37.50
2023-06-11T04:06:50.420Z,36.80
2023-06-11T04:09:19.959Z,37.30
2023-06-11T04:11:49.190Z,37.20
2023-06-11T04:14:18.324Z,37.90
2023-06-11T04:16:47.634Z,37.60
2023-06-11T04:19:19.524Z,37.60
2023-06-11T04:21:49.896Z,37.50
2023-06-11T04:24:18.953Z,37.60
2023-06-11T04:26:49.339Z,37.20
2023-06-11T04:29:19.788Z,37.10
2023-06-11T04:31:52.328Z,37.20
2023-06-11T04:34:30.352Z,36.70
2023-06-11T04:37:02.249Z,37.20
2023-06-11T04:39:32.715Z,37.30
2023-06-11T04:42:04.349Z,37.10
2023-06-11T04:44:33.309Z,37.00
2023-06-11T04:47:05.787Z,36.90
2023-06-11T04:49:38.914Z,36.60
2023-06-11T04:52:09.704Z,37.00
2023-06-11T04:54:42.714Z,36.80
2023-06-11T04:57:12.151Z,36.60
2023-06-11T04:59:41.057Z,37.00
2023-06-11T05:02:10.745Z,36.80
2023-06-11T05:04:41.302Z,36.60
2023-06-11T05:07:12.024Z,37.10
2023-06-11T05:09:44.460Z,36.90
2023-06-11T05:12:15.793Z,37.10
2023-06-11T05:14:46.484Z,37.00
2023-06-11T05:17:17.083Z,36.50
2023-06-11T05:19:49.916Z,36.40
2023-06-11T05:22:19.603Z,36.40
2023-06-11T05:24:48.997Z,36.40
2023-06-11T05:27:18.559Z,36.30
2023-06-11T05:29:47.963Z,36.20
2023-06-11T05:32:19.202Z,36.80
2023-06-11T05:34:51.223Z,37.00
2023-06-11T05:37:23.132Z,37.70
2023-06-11T05:39:52.072Z,36.90
2023-06-11T05:42:22.314Z,36.20
2023-06-11T05:44:51.471Z,36.30
2023-06-11T05:47:20.920Z,36.00
2023-06-11T05:49:53.399Z,36.50
2023-06-11T05:52:22.643Z,36.00
2023-06-11T05:54:51.626Z,35.30
2023-06-11T05:57:23.185Z,36.00
2023-06-11T05:59:54.234Z,35.20
2023-06-11T06:02:24.697Z,35.30
2023-06-11T06:04:56.529Z,35.30
2023-06-11T06:07:25.956Z,35.20
2023-06-11T06:09:56.620Z,35.40
2023-06-11T06:12:25.815Z,34.20
2023-06-11T06:14:54.718Z,33.80
2023-06-11T06:17:24.020Z,34.10
2023-06-11T06:19:53.259Z,33.80
2023-06-11T06:22:23.876Z,34.30
2023-06-11T06:24:52.846Z,34.10
2023-06-11T06:27:22.444Z,33.90
2023-06-11T06:29:52.095Z,33.40
2023-06-11T06:32:21.453Z,33.30
2023-06-11T06:34:50.891Z,33.70
2023-06-11T06:37:20.180Z,33.80
2023-06-11T06:39:52.349Z,32.70
2023-06-11T06:42:21.735Z,32.80
2023-06-11T06:44:55.442Z,32.60
2023-06-11T06:47:24.914Z,32.60
2023-06-11T06:49:54.058Z,32.40
2023-06-11T06:52:23.108Z,32.40
2023-06-11T06:54:53.439Z,32.00
2023-06-11T06:57:22.633Z,32.10
2023-06-11T06:59:51.539Z,31.50
2023-06-11T07:02:21.499Z,31.50
2023-06-11T07:04:52.672Z,31.90
2023-06-11T07:07:21.994Z,31.50
2023-06-11T07:09:52.762Z,32.10
2023-06-11T07:12:22.588Z,31.50
2023-06-11T07:14:52.389Z,30.80
2023-06-11T07:17:23.036Z,30.30
2023-06-11T07:19:52.499Z,30.00
2023-06-11T07:22:22.008Z,30.50
2023-06-11T07:24:53.430Z,30.00
2023-06-11T07:27:22.583Z,29.00
2023-06-11T07:29:53.439Z,29.80
2023-06-11T07:32:22.857Z,30.60
2023-06-11T07:34:51.902Z,30.40
2023-06-11T07:37:20.994Z,30.00
2023-06-11T07:39:50.022Z,30.20
2023-06-11T07:42:20.870Z,31.00
2023-06-11T07:44:49.831Z,31.00
2023-06-11T07:47:19.053Z,29.50
2023-06-11T07:49:47.984Z,29.40
2023-06-11T07:52:17.597Z,28.80
2023-06-11T07:54:47.172Z,28.80
2023-06-11T07:57:17.030Z,28.80
2023-06-11T07:59:47.378Z,29.60
2023-06-11T08:02:16.837Z,28.80
2023-06-11T08:04:46.190Z,28.90
2023-06-11T08:07:15.364Z,28.80
2023-06-11T08:09:44.556Z,29.70
2023-06-11T08:12:14.621Z,30.20
2023-06-11T08:14:43.538Z,29.90
2023-06-11T08:17:14.392Z,29.60
2023-06-11T08:19:43.222Z,29.30
2023-06-11T08:22:12.409Z,28.80
2023-06-11T08:24:41.847Z,28.90
2023-06-11T08:27:11.124Z,29.30
2023-06-11T08:29:40.230Z,29.20
2023-06-11T08:32:10.056Z,29.50
2023-06-11T08:34:40.364Z,30.10
2023-06-11T08:37:09.566Z,30.00
2023-06-11T08:39:38.544Z,29.60
2023-06-11T08:42:09.039Z,29.70
2023-06-11T08:44:38.257Z,29.60
2023-06-11T08:47:11.234Z,30.20
2023-06-11T08:49:43.946Z,29.90
2023-06-11T08:52:15.845Z,30.30
2023-06-11T08:54:45.035Z,29.90
2023-06-11T08:57:14.374Z,30.40
2023-06-11T08:59:43.300Z,31.00
2023-06-11T09:02:12.618Z,31.20
2023-06-11T09:04:45.063Z,31.00
2023-06-11T09:07:25.759Z,30.10
2023-06-11T09:10:05.842Z,29.80
2023-06-11T09:12:35.625Z,30.40
2023-06-11T09:15:08.258Z,30.70
2023-06-11T09:17:38.565Z,31.20
2023-06-11T09:20:12.838Z,31.30
2023-06-11T09:22:45.207Z,31.00
2023-06-11T09:25:18.272Z,31.10
2023-06-11T09:27:49.859Z,30.50
2023-06-11T09:30:21.233Z,30.70
2023-06-11T09:32:51.560Z,30.60
2023-06-11T09:35:23.282Z,29.90
2023-06-11T09:37:54.549Z,30.10
2023-06-11T09:40:25.366Z,30.10
2023-06-11T09:42:54.623Z,30.20
2023-06-11T09:45:24.897Z,30.00
2023-06-11T09:47:55.390Z,30.00
2023-06-11T09:50:26.943Z,30.10
2023-06-11T09:52:59.071Z,29.50
2023-06-11T09:55:29.176Z,29.60
2023-06-11T09:57:59.087Z,29.80
2023-06-11T10:00:27.997Z,30.00
2023-06-11T10:02:57.578Z,29.80
2023-06-11T10:05:29.638Z,29.40
2023-06-11T10:08:07.062Z,29.40
2023-06-11T10:10:41.537Z,28.70
2023-06-11T10:13:10.886Z,28.80
2023-06-11T10:15:40.615Z,28.70
2023-06-11T10:18:16.372Z,28.50
2023-06-11T10:21:01.180Z,28.50
2023-06-11T10:23:38.758Z,28.90
2023-06-11T10:26:09.253Z,28.70
2023-06-11T10:28:42.998Z,28.80
2023-06-11T10:31:12.001Z,29.50
2023-06-11T10:33:48.178Z,29.10
2023-06-11T10:36:29.163Z,29.70
2023-06-11T10:39:07.481Z,28.70
2023-06-11T10:41:40.444Z,29.00
2023-06-11T10:44:11.905Z,28.10
2023-06-11T10:46:50.305Z,28.60
2023-06-11T10:49:21.409Z,29.00
2023-06-11T10:51:53.801Z,28.30
2023-06-11T10:54:27.280Z,27.60
2023-06-11T10:56:57.100Z,27.80
2023-06-11T10:59:26.291Z,28.20
2023-06-11T11:01:56.089Z,28.60
2023-06-11T11:04:26.205Z,27.90
2023-06-11T11:07:09.648Z,28.40
2023-06-11T11:09:39.383Z,27.60
2023-06-11T11:12:09.616Z,28.00
2023-06-11T11:14:38.907Z,28.00
2023-06-11T11:17:08.498Z,27.60
2023-06-11T11:19:38.085Z,28.40
2023-06-11T11:22:08.578Z,28.00
2023-06-11T11:24:40.796Z,27.10
2023-06-11T11:27:10.410Z,28.30
2023-06-11T11:29:39.702Z,29.10
2023-06-11T11:32:09.788Z,28.30
2023-06-11T11:34:41.504Z,28.20
2023-06-11T11:37:12.358Z,27.50
2023-06-11T11:39:41.627Z,28.20
2023-06-11T11:42:11.778Z,28.40
2023-06-11T11:44:42.571Z,29.10
2023-06-11T11:47:11.823Z,28.10
2023-06-11T11:49:41.289Z,27.60
2023-06-11T11:52:14.042Z,28.40
2023-06-11T11:54:45.558Z,29.20
2023-06-11T11:57:14.755Z,28.10
2023-06-11T11:59:44.364Z,28.50
2023-06-11T12:02:13.211Z,28.20
2023-06-11T12:04:51.033Z,28.70
2023-06-11T12:07:22.956Z,28.20
2023-06-11T12:09:52.131Z,28.30
2023-06-11T12:12:21.051Z,28.90
2023-06-11T12:14:50.206Z,28.60
2023-06-11T12:17:19.339Z,29.10
2023-06-11T12:19:48.637Z,29.70
2023-06-11T12:22:17.632Z,29.00
2023-06-11T12:24:47.925Z,28.50
2023-06-11T12:27:17.168Z,28.30
2023-06-11T12:29:46.994Z,29.10
2023-06-11T12:32:16.466Z,29.00
2023-06-11T12:34:45.535Z,28.80
2023-06-11T12:37:15.228Z,29.10
2023-06-11T12:39:45.264Z,28.80
2023-06-11T12:42:16.256Z,29.00
2023-06-11T12:44:46.769Z,28.90
2023-06-11T12:47:16.793Z,29.10
2023-06-11T12:49:46.777Z,29.30
2023-06-11T12:52:16.911Z,28.50
2023-06-11T12:54:46.068Z,28.20
2023-06-11T12:57:17.357Z,28.20
2023-06-11T12:59:46.673Z,28.00
2023-06-11T13:02:19.399Z,28.80
2023-06-11T13:04:48.898Z,28.30
2023-06-11T13:07:18.455Z,27.50
2023-06-11T13:09:48.051Z,28.00
2023-06-11T13:12:19.296Z,28.00
2023-06-11T13:14:48.725Z,28.60
2023-06-11T13:17:17.820Z,28.70
2023-06-11T13:19:46.862Z,28.60
2023-06-11T13:22:17.469Z,28.40
2023-06-11T13:24:46.718Z,28.30
2023-06-11T13:27:16.028Z,28.50
2023-06-11T13:29:46.678Z,28.70
2023-06-11T13:32:17.042Z,28.40
2023-06-11T13:34:46.159Z,28.90
2023-06-11T13:37:15.759Z,28.70
2023-06-11T13:39:44.816Z,28.30
2023-06-11T13:42:14.278Z,28.20
2023-06-11T13:44:43.277Z,28.00
2023-06-11T13:47:14.279Z,28.60
2023-06-11T13:49:43.315Z,28.30
2023-06-11T13:52:12.515Z,28.50
2023-06-11T13:54:43.781Z,29.00
2023-06-11T13:57:12.920Z,29.10
2023-06-11T13:59:41.976Z,29.50
2023-06-11T14:02:11.295Z,29.60
2023-06-11T14:04:41.607Z,29.10
2023-06-11T14:07:11.162Z,29.20
2023-06-11T14:09:40.841Z,28.90
2023-06-11T14:12:10.848Z,28.70
2023-06-11T14:14:39.692Z,28.60
2023-06-11T14:17:09.200Z,28.70
2023-06-11T14:19:38.110Z,28.80
2023-06-11T14:22:08.985Z,29.30
2023-06-11T14:24:37.946Z,28.20
2023-06-11T14:27:08.849Z,28.50
2023-06-11T14:29:37.620Z,28.60
2023-06-11T14:32:08.446Z,29.00
2023-06-11T14:34:37.511Z,29.10
2023-06-11T14:37:08.716Z,29.40
2023-06-11T14:39:37.688Z,29.20
2023-06-11T14:42:08.303Z,29.50
2023-06-11T14:44:37.322Z,29.50
2023-06-11T14:47:07.473Z,29.40
2023-06-11T14:49:36.748Z,29.60
2023-06-11T14:52:10.636Z,29.10
2023-06-11T14:54:40.737Z,29.50
2023-06-11T14:57:14.366Z,29.80
2023-06-11T14:59:45.013Z,30.00
2023-06-11T15:02:16.414Z,30.30
2023-06-11T15:04:46.537Z,30.20
2023-06-11T15:07:33.193Z,30.30
2023-06-11T15:10:06.236Z,29.80
2023-06-11T15:12:35.724Z,29.80
2023-06-11T15:15:04.863Z,29.80
2023-06-11T15:17:37.448Z,29.20
2023-06-11T15:20:08.244Z,28.70
2023-06-11T15:22:40.654Z,28.40
2023-06-11T15:25:11.362Z,28.50
2023-06-11T15:27:41.121Z,28.70
2023-06-11T15:30:11.453Z,29.40
2023-06-11T15:32:41.085Z,30.00
2023-06-11T15:35:12.194Z,30.00
2023-06-11T15:37:42.820Z,30.00
2023-06-11T15:40:13.379Z,30.40
2023-06-11T15:42:43.527Z,30.60
2023-06-11T15:45:14.198Z,30.10
2023-06-11T15:47:44.593Z,30.90
2023-06-11T15:50:14.310Z,31.10
2023-06-11T15:52:45.594Z,31.40
2023-06-11T15:55:14.906Z,30.70
2023-06-11T15:57:45.255Z,30.70
2023-06-11T16:00:16.039Z,30.50
2023-06-11T16:02:45.511Z,30.20
2023-06-11T16:05:14.876Z,30.70
2023-06-11T16:07:45.649Z,31.00
2023-06-11T16:10:15.053Z,31.30
2023-06-11T16:12:45.963Z,30.90
2023-06-11T16:15:15.259Z,31.30
2023-06-11T16:17:46.288Z,31.00
2023-06-11T16:20:18.038Z,31.20
2023-06-11T16:22:48.923Z,31.10
2023-06-11T16:25:20.650Z,31.10
2023-06-11T16:27:50.548Z,31.00
2023-06-11T16:30:19.386Z,31.40
2023-06-11T16:32:48.692Z,30.90
2023-06-11T16:35:18.596Z,30.80
2023-06-11T16:37:49.542Z,31.10
2023-06-11T16:40:18.482Z,31.30
2023-06-11T16:42:47.696Z,31.70
2023-06-11T16:45:17.060Z,31.80
2023-06-11T16:47:46.295Z,32.00
2023-06-11T16:50:15.704Z,32.10
2023-06-11T16:52:45.043Z,32.30
2023-06-11T16:55:15.352Z,32.40
2023-06-11T16:57:44.551Z,32.30
2023-06-11T17:00:15.994Z,32.10
2023-06-11T17:02:45.931Z,32.40
2023-06-11T17:05:15.321Z,32.70
2023-06-11T17:07:45.515Z,31.90
2023-06-11T17:10:15.927Z,31.30
2023-06-11T17:12:47.265Z,31.00
2023-06-11T17:15:17.532Z,31.70
2023-06-11T17:17:47.416Z,31.80
2023-06-11T17:20:18.113Z,31.20
2023-06-11T17:22:51.728Z,31.30
2023-06-11T17:25:24.632Z,31.70
2023-06-11T17:27:54.095Z,31.90
2023-06-11T17:30:23.497Z,32.00
2023-06-11T17:32:52.757Z,32.40
2023-06-11T17:35:21.981Z,32.60
2023-06-11T17:37:51.138Z,32.50
2023-06-11T17:40:21.716Z,32.60
2023-06-11T17:42:52.133Z,32.00
2023-06-11T17:45:21.060Z,32.40
2023-06-11T17:47:50.446Z,32.50
2023-06-11T17:50:19.295Z,32.80
2023-06-11T17:52:48.665Z,33.00
2023-06-11T17:55:17.769Z,33.00
2023-06-11T17:57:49.274Z,33.30
2023-06-11T18:00:19.415Z,33.30
2023-06-11T18:02:48.680Z,33.20
2023-06-11T18:05:17.916Z,33.10
2023-06-11T18:07:47.668Z,33.40
2023-06-11T18:10:17.287Z,33.20
2023-06-11T18:12:47.903Z,33.20
2023-06-11T18:17:49.045Z,33.40
2023-06-11T18:20:18.131Z,33.50
2023-06-11T18:22:47.467Z,33.40
2023-06-11T18:25:16.569Z,33.80
2023-06-11T18:27:47.345Z,33.70
2023-06-11T18:30:19.624Z,33.50
2023-06-11T18:32:49.355Z,33.60
2023-06-11T18:35:19.347Z,34.10
2023-06-11T18:37:48.840Z,34.00
2023-06-11T18:40:17.753Z,34.80
2023-06-11T18:42:48.685Z,34.40
2023-06-11T18:45:17.768Z,34.50
2023-06-11T18:47:47.022Z,34.70
2023-06-11T18:50:16.476Z,34.90
2023-06-11T18:52:45.758Z,35.00
2023-06-11T18:55:14.740Z,35.10
2023-06-11T18:57:43.839Z,35.10
2023-06-11T19:00:16.165Z,35.10
2023-06-11T19:02:45.597Z,35.20
2023-06-11T19:05:14.789Z,35.30
2023-06-11T19:07:44.054Z,35.70
2023-06-11T19:10:13.370Z,35.60
2023-06-11T19:12:43.821Z,35.70
2023-06-11T19:15:14.346Z,35.80
2023-06-11T19:17:43.771Z,36.00
2023-06-11T19:20:13.897Z,36.20
2023-06-11T19:22:43.271Z,36.10
2023-06-11T19:25:12.272Z,36.10
2023-06-11T19:27:41.716Z,36.40
2023-06-11T19:30:11.803Z,36.40
2023-06-11T19:32:42.657Z,36.40
2023-06-11T19:35:12.094Z,36.50
2023-06-11T19:37:41.444Z,36.30
2023-06-11T19:40:12.472Z,36.60
2023-06-11T19:42:42.364Z,36.80
2023-06-11T19:45:11.735Z,36.80
2023-06-11T19:47:42.451Z,36.90
2023-06-11T19:50:12.564Z,36.80
2023-06-11T19:52:42.372Z,36.80
2023-06-11T19:55:12.042Z,37.00
2023-06-11T19:57:41.447Z,37.10
2023-06-11T20:00:12.668Z,37.10
2023-06-11T20:02:43.634Z,37.10
2023-06-11T20:05:12.679Z,37.30
2023-06-11T20:07:41.895Z,37.50
2023-06-11T20:10:11.861Z,37.40
2023-06-11T20:12:41.277Z,37.70
2023-06-11T20:15:11.472Z,37.50
2023-06-11T20:17:41.976Z,37.60
2023-06-11T20:20:11.971Z,37.90
2023-06-11T20:22:41.660Z,38.00
2023-06-11T20:25:10.822Z,38.00
2023-06-11T20:27:40.103Z,38.10
2023-06-11T20:30:10.618Z,38.20
2023-06-11T20:32:40.672Z,38.20
2023-06-11T20:35:11.517Z,38.50
2023-06-11T20:37:41.139Z,38.70
2023-06-11T20:40:12.045Z,38.60
2023-06-11T20:42:41.866Z,38.60
2023-06-11T20:45:12.111Z,38.80
2023-06-11T20:47:41.512Z,39.20
2023-06-11T20:50:12.404Z,39.10
2023-06-11T20:52:41.960Z,39.20
2023-06-11T20:55:11.585Z,39.40
2023-06-11T20:57:59.323Z,39.70
2023-06-11T21:00:28.245Z,39.60
2023-06-11T21:03:00.027Z,39.60
2023-06-11T21:05:30.848Z,39.80
2023-06-11T21:08:00.285Z,40.20
2023-06-11T21:10:29.204Z,40.00
2023-06-11T21:12:58.391Z,40.00
2023-06-11T21:15:27.311Z,40.10
2023-06-11T21:17:57.639Z,40.20
2023-06-11T21:20:27.220Z,40.40
2023-06-11T21:22:57.802Z,40.40
2023-06-11T21:25:26.746Z,40.60
2023-06-11T21:27:55.936Z,40.60
2023-06-11T21:30:24.978Z,40.80
2023-06-11T21:32:54.236Z,40.90
2023-06-11T21:35:23.256Z,41.00
2023-06-11T21:37:52.429Z,41.20
2023-06-11T21:40:22.833Z,41.10
2023-06-11T21:42:52.000Z,41.30
2023-06-11T21:45:21.008Z,41.50
2023-06-11T21:47:50.409Z,41.50
2023-06-11T21:50:19.764Z,41.50
2023-06-11T21:52:48.929Z,41.30
2023-06-11T21:55:18.176Z,41.50
2023-06-11T21:57:48.900Z,41.60
2023-06-11T22:00:20.840Z,42.30
2023-06-11T22:02:50.027Z,41.70
2023-06-11T22:05:21.842Z,41.70
2023-06-11T22:07:52.520Z,42.00
2023-06-11T22:10:21.706Z,42.00
2023-06-11T22:12:52.354Z,42.00
2023-06-11T22:15:21.733Z,42.00
2023-06-11T22:17:53.912Z,42.00
2023-06-11T22:20:26.581Z,42.00
2023-06-11T22:22:56.268Z,42.20
2023-06-11T22:25:27.319Z,42.10
2023-06-11T22:27:58.120Z,42.00
2023-06-11T22:30:26.898Z,42.10
2023-06-11T22:32:56.131Z,42.00
2023-06-11T22:35:25.056Z,42.10
2023-06-11T22:37:54.253Z,41.90
2023-06-11T22:40:23.713Z,42.00
2023-06-11T22:42:52.815Z,42.00
2023-06-11T22:45:23.080Z,41.90
2023-06-11T22:47:54.426Z,42.00
2023-06-11T22:50:23.565Z,42.00
2023-06-11T22:52:54.737Z,42.00
2023-06-11T22:55:23.633Z,42.30
2023-06-11T22:57:52.907Z,42.40
2023-06-11T23:00:23.555Z,42.30
2023-06-11T23:02:52.804Z,42.30
2023-06-11T23:05:21.830Z,42.30
2023-06-11T23:07:51.443Z,42.40
2023-06-11T23:10:20.438Z,42.30
2023-06-11T23:12:50.323Z,42.50
2023-06-11T23:15:19.506Z,42.50
2023-06-11T23:17:54.885Z,42.60
2023-06-11T23:20:28.563Z,42.80
2023-06-11T23:22:58.457Z,42.60
2023-06-11T23:25:28.190Z,42.60
2023-06-11T23:27:57.408Z,42.70
2023-06-11T23:30:26.777Z,43.00
2023-06-11T23:33:01.121Z,42.90
2023-06-11T23:35:30.174Z,42.90
2023-06-11T23:37:59.289Z,43.00
2023-06-11T23:40:28.098Z,43.00
2023-06-11T23:42:57.314Z,42.90
2023-06-11T23:45:26.206Z,43.00
2023-06-11T23:47:56.793Z,43.00
2023-06-11T23:50:25.974Z,43.00
2023-06-11T23:52:55.064Z,43.10
2023-06-11T23:55:24.500Z,42.90
2023-06-11T23:58:20.733Z,43.00
